Time;durP1;ratioP1;P1;durP2;ratioP2;P2;SDS_P1;SDS_P2;PMS_P1;PMS_P2;Temp;Humidity;BMP_temperature;BMP_pressure;BME280_temperature;BME280_humidity;BME280_pressure;Samples;Min_cycle;Max_cycle;Signal;HPM_P1;HPM_P2
2021/07/22 00:02:07;;;;;;;;;;;18.90;98.00;;;;;;5074378;28;19962;-82
2021/07/22 00:04:32;;;;;;;;;;;18.90;98.10;;;;;;5056395;28;20368;-82
2021/07/22 00:06:58;;;;;;;;;;;18.90;98.10;;;;;;5055821;28;19909;-82
2021/07/22 00:09:23;;;;;;;;;;;18.90;98.10;;;;;;5076907;28;20339;-82
2021/07/22 00:11:49;;;;;;;;;;;18.90;98.10;;;;;;5059429;28;19909;-83
2021/07/22 00:14:14;;;;;;;;;;;18.90;98.20;;;;;;5059830;28;19934;-82
2021/07/22 00:16:40;;;;;;;;;;;18.90;98.20;;;;;;5059593;28;19913;-82
2021/07/22 00:19:05;;;;;;;;;;;18.90;98.20;;;;;;5058771;28;19924;-82
2021/07/22 00:21:31;;;;;;;;;;;18.90;98.30;;;;;;5077488;28;19912;-82
2021/07/22 00:23:57;;;;;;;;;;;18.90;98.30;;;;;;5059083;28;19908;-82
2021/07/22 00:26:23;;;;;;;;;;;19.00;98.40;;;;;;5058624;28;19908;-82
2021/07/22 00:28:48;;;;;;;;;;;19.00;98.40;;;;;;5058425;28;19916;-81
2021/07/22 00:31:14;;;;;;;;;;;18.90;98.50;;;;;;5076936;28;19962;-82
2021/07/22 00:33:39;;;;;;;;;;;18.90;98.60;;;;;;5058710;28;19928;-82
2021/07/22 00:36:05;;;;;;;;;;;19.00;98.70;;;;;;5059119;28;20272;-82
2021/07/22 00:38:31;;;;;;;;;;;19.00;98.90;;;;;;5077121;28;19915;-82
2021/07/22 00:40:56;;;;;;;;;;;19.00;98.90;;;;;;5058400;28;20020;-82
2021/07/22 00:43:22;;;;;;;;;;;19.00;98.90;;;;;;5077407;28;19971;-82
2021/07/22 00:45:47;;;;;;;;;;;19.00;98.90;;;;;;5076947;28;19908;-82
2021/07/22 00:48:13;;;;;;;;;;;19.00;98.90;;;;;;5058855;28;19912;-82
2021/07/22 00:50:38;;;;;;;;;;;19.00;98.80;;;;;;5057860;28;20388;-82
2021/07/22 00:53:04;;;;;;;;;;;19.00;98.70;;;;;;5076946;28;20277;-82
2021/07/22 00:55:29;;;;;;;;;;;19.00;98.70;;;;;;5058591;28;19916;-82
2021/07/22 00:57:55;;;;;;;;;;;19.00;98.70;;;;;;5058599;28;19948;-82
2021/07/22 01:00:21;;;;;;;;;;;19.00;98.80;;;;;;5076601;28;20007;-82
2021/07/22 01:02:46;;;;;;;;;;;19.00;98.80;;;;;;5076982;28;20278;-82
2021/07/22 01:05:12;;;;;;;;;;;19.00;98.80;;;;;;5076802;28;19913;-82
2021/07/22 01:07:37;;;;;;;;;;;18.90;98.80;;;;;;5076533;28;20262;-82
2021/07/22 01:10:04;;;;;;;;;;;18.90;98.80;;;;;;5057603;28;19912;-82
2021/07/22 01:12:29;;;;;;;;;;;18.80;98.90;;;;;;5076083;28;19969;-82
2021/07/22 01:14:54;;;;;;;;;;;18.80;98.90;;;;;;5058349;28;19916;-82
2021/07/22 01:17:39;;;;;;;;;;;18.80;99.00;;;;;;5057528;28;19909;-82
2021/07/22 01:20:11;;;;;;;;;;;18.80;99.00;;;;;;5057349;28;20003;-83
2021/07/22 01:22:37;;;;;;;;;;;18.70;99.00;;;;;;5076084;28;19913;-83
2021/07/22 01:25:03;;;;;;;;;;;18.80;99.00;;;;;;5057563;28;19909;-82
2021/07/22 01:27:28;;;;;;;;;;;18.70;98.90;;;;;;5058055;28;19912;-82
2021/07/22 01:29:54;;;;;;;;;;;18.70;99.00;;;;;;5075137;28;20007;-82
2021/07/22 01:32:19;;;;;;;;;;;18.70;99.00;;;;;;5057582;28;19908;-82
2021/07/22 01:34:45;;;;;;;;;;;18.70;98.90;;;;;;5058157;28;19908;-82
2021/07/22 01:37:10;;;;;;;;;;;18.60;99.00;;;;;;5057817;28;19909;-82
2021/07/22 01:39:36;;;;;;;;;;;18.60;99.00;;;;;;5056955;28;19947;-82
2021/07/22 01:42:01;;;;;;;;;;;18.50;99.10;;;;;;5057547;28;20281;-82
2021/07/22 01:44:27;;;;;;;;;;;18.50;99.10;;;;;;5057332;28;19957;-82
2021/07/22 01:46:53;;;;;;;;;;;18.50;99.10;;;;;;5058061;28;19916;-82
2021/07/22 01:49:19;;;;;;;;;;;18.50;99.10;;;;;;5056698;28;19913;-82
2021/07/22 01:51:44;;;;;;;;;;;18.50;99.10;;;;;;5057557;28;19916;-82
2021/07/22 01:54:10;;;;;;;;;;;18.50;99.10;;;;;;5075444;28;19959;-82
2021/07/22 01:56:35;;;;;;;;;;;18.50;99.20;;;;;;5057439;28;19912;-82
2021/07/22 01:59:01;;;;;;;;;;;18.50;99.30;;;;;;5056503;28;20012;-82
2021/07/22 02:01:26;;;;;;;;;;;18.40;99.30;;;;;;5056894;28;19913;-82
2021/07/22 02:03:51;;;;;;;;;;;18.40;99.40;;;;;;5075196;28;19909;-82
2021/07/22 02:06:17;;;;;;;;;;;18.30;99.40;;;;;;5074820;28;19913;-82
2021/07/22 02:08:42;;;;;;;;;;;18.30;99.50;;;;;;5056879;28;19912;-82
2021/07/22 02:11:08;;;;;;;;;;;18.20;99.50;;;;;;5056631;28;19909;-82
2021/07/22 02:13:33;;;;;;;;;;;18.20;99.40;;;;;;5055968;28;19934;-82
2021/07/22 02:15:59;;;;;;;;;;;18.20;99.40;;;;;;5055830;28;19964;-82
2021/07/22 02:18:24;;;;;;;;;;;18.20;99.50;;;;;;5074521;28;20384;-82
2021/07/22 02:20:50;;;;;;;;;;;18.10;99.50;;;;;;5055575;28;19915;-82
2021/07/22 02:23:15;;;;;;;;;;;18.10;99.50;;;;;;5056567;28;19915;-83
2021/07/22 02:25:41;;;;;;;;;;;18.10;99.50;;;;;;5074480;28;19908;-82
2021/07/22 02:28:07;;;;;;;;;;;18.10;99.40;;;;;;5074630;28;20403;-83
2021/07/22 02:30:33;;;;;;;;;;;18.10;99.50;;;;;;5074024;28;19932;-82
2021/07/22 02:32:58;;;;;;;;;;;18.00;99.60;;;;;;5073864;28;19909;-82
2021/07/22 02:35:24;;;;;;;;;;;18.00;99.60;;;;;;5056402;28;19921;-82
2021/07/22 02:37:49;;;;;;;;;;;18.00;99.60;;;;;;5074458;28;19909;-82
2021/07/22 02:40:15;;;;;;;;;;;18.00;99.60;;;;;;5055397;28;19908;-82
2021/07/22 02:42:40;;;;;;;;;;;18.00;99.60;;;;;;5074836;28;19915;-82
2021/07/22 02:45:06;;;;;;;;;;;18.00;99.60;;;;;;5074521;28;19915;-82
2021/07/22 02:47:32;;;;;;;;;;;17.90;99.70;;;;;;5074916;28;19912;-82
2021/07/22 02:49:58;;;;;;;;;;;18.00;99.60;;;;;;5056007;28;20368;-82
2021/07/22 02:52:24;;;;;;;;;;;17.90;99.60;;;;;;5056182;28;19912;-82
2021/07/22 02:54:49;;;;;;;;;;;17.90;99.60;;;;;;5056221;28;19974;-82
2021/07/22 02:57:15;;;;;;;;;;;17.80;99.60;;;;;;5056429;28;19908;-82
2021/07/22 02:59:40;;;;;;;;;;;17.80;99.70;;;;;;5055585;28;19908;-82
2021/07/22 03:02:06;;;;;;;;;;;17.80;99.70;;;;;;5073712;28;19908;-82
2021/07/22 03:04:31;;;;;;;;;;;17.80;99.60;;;;;;5074038;28;19909;-82
2021/07/22 03:06:57;;;;;;;;;;;17.80;99.60;;;;;;5074148;28;19909;-82
2021/07/22 03:09:23;;;;;;;;;;;17.80;99.70;;;;;;5073088;28;20285;-82
2021/07/22 03:11:48;;;;;;;;;;;17.70;99.80;;;;;;5055708;28;19909;-82
2021/07/22 03:14:14;;;;;;;;;;;17.70;99.80;;;;;;5055915;28;19912;-82
2021/07/22 03:16:39;;;;;;;;;;;17.80;99.80;;;;;;5073993;28;19923;-82
2021/07/22 03:19:05;;;;;;;;;;;17.70;99.80;;;;;;5073042;28;19928;-82
2021/07/22 03:21:30;;;;;;;;;;;17.60;99.70;;;;;;5073771;28;19993;-82
2021/07/22 03:23:56;;;;;;;;;;;17.70;99.70;;;;;;5073964;28;19908;-82
2021/07/22 03:26:21;;;;;;;;;;;17.70;99.60;;;;;;5056161;28;19935;-82
2021/07/22 03:28:47;;;;;;;;;;;17.70;99.70;;;;;;5073734;28;19909;-82
2021/07/22 03:31:12;;;;;;;;;;;17.70;99.70;;;;;;5054941;28;19965;-82
2021/07/22 03:33:38;;;;;;;;;;;17.60;99.70;;;;;;5055850;28;19915;-82
2021/07/22 03:36:04;;;;;;;;;;;17.60;99.80;;;;;;5073960;28;20370;-83
2021/07/22 03:38:30;;;;;;;;;;;17.60;99.80;;;;;;5073815;28;20016;-83
2021/07/22 03:40:55;;;;;;;;;;;17.60;99.90;;;;;;5073044;28;20365;-82
2021/07/22 03:43:21;;;;;;;;;;;17.50;99.90;;;;;;5076570;28;19910;-82
2021/07/22 03:45:46;;;;;;;;;;;17.60;99.90;;;;;;5059102;28;20288;-82
2021/07/22 03:48:15;;;;;;;;;;;17.50;99.90;;;;;;5058782;28;19908;-82
2021/07/22 03:50:40;;;;;;;;;;;17.50;99.90;;;;;;5058663;28;20276;-82
2021/07/22 03:53:07;;;;;;;;;;;17.50;99.90;;;;;;5059205;28;19905;-82
2021/07/22 03:55:33;;;;;;;;;;;17.50;99.90;;;;;;5059440;28;20368;-82
2021/07/22 03:57:58;;;;;;;;;;;17.50;99.90;;;;;;5058669;28;19954;-82
2021/07/22 04:00:24;;;;;;;;;;;17.50;99.90;;;;;;5077611;28;19943;-82
2021/07/22 04:03:02;;;;;;;;;;;17.50;99.90;;;;;;5077669;28;19904;-82
2021/07/22 04:05:28;;;;;;;;;;;17.60;99.90;;;;;;5078017;28;19911;-82
2021/07/22 04:07:54;;;;;;;;;;;17.60;99.90;;;;;;5059248;28;19999;-82
2021/07/22 04:10:20;;;;;;;;;;;17.60;99.90;;;;;;5059487;28;19927;-82
2021/07/22 04:12:45;;;;;;;;;;;17.60;99.90;;;;;;5076991;28;20365;-82
2021/07/22 04:15:11;;;;;;;;;;;17.60;99.90;;;;;;5058215;28;19912;-82
2021/07/22 04:17:36;;;;;;;;;;;17.60;99.90;;;;;;5058459;28;20372;-82
2021/07/22 04:20:03;;;;;;;;;;;17.60;99.90;;;;;;5057982;28;19905;-82
2021/07/22 04:22:29;;;;;;;;;;;17.60;99.90;;;;;;5058767;28;19930;-82
2021/07/22 04:24:54;;;;;;;;;;;17.60;99.90;;;;;;5058389;28;19904;-82
2021/07/22 04:27:27;;;;;;;;;;;17.60;99.90;;;;;;5058539;28;20261;-82
2021/07/22 04:29:53;;;;;;;;;;;17.60;99.90;;;;;;5058108;28;20042;-82
2021/07/22 04:32:18;;;;;;;;;;;17.60;99.90;;;;;;5076283;28;19952;-82
2021/07/22 04:34:44;;;;;;;;;;;17.60;99.90;;;;;;5058428;28;19943;-82
2021/07/22 04:37:09;;;;;;;;;;;17.60;99.90;;;;;;5076383;28;19905;-83
2021/07/22 04:39:35;;;;;;;;;;;17.60;99.90;;;;;;5057944;28;19905;-82
2021/07/22 04:42:00;;;;;;;;;;;17.70;99.80;;;;;;5077224;28;20063;-82
2021/07/22 04:44:26;;;;;;;;;;;17.70;99.80;;;;;;5059214;28;19915;-82
2021/07/22 04:46:52;;;;;;;;;;;17.70;99.80;;;;;;5076323;28;19905;-82
2021/07/22 04:49:18;;;;;;;;;;;17.70;99.80;;;;;;5077162;28;19905;-82
2021/07/22 04:51:43;;;;;;;;;;;17.70;99.80;;;;;;5077001;28;19908;-82
2021/07/22 04:54:09;;;;;;;;;;;17.70;99.80;;;;;;5057783;28;19904;-81
2021/07/22 04:56:34;;;;;;;;;;;17.70;99.80;;;;;;5058371;28;20356;-82
2021/07/22 04:59:00;;;;;;;;;;;17.80;99.90;;;;;;5076001;28;19904;-82
2021/07/22 05:01:25;;;;;;;;;;;17.80;99.90;;;;;;5076074;28;19947;-82
2021/07/22 05:03:51;;;;;;;;;;;17.80;99.90;;;;;;5077731;28;19904;-82
2021/07/22 05:06:16;;;;;;;;;;;17.80;99.90;;;;;;5078007;28;19950;-82
2021/07/22 05:08:43;;;;;;;;;;;17.80;99.90;;;;;;5078417;28;20408;-82
2021/07/22 05:11:09;;;;;;;;;;;17.90;99.90;;;;;;5060012;28;19905;-81
2021/07/22 05:13:39;;;;;;;;;;;17.90;99.90;;;;;;5062768;28;19904;-82
2021/07/22 05:16:05;;;;;;;;;;;17.90;99.90;;;;;;5079744;28;20361;-83
2021/07/22 05:18:31;;;;;;;;;;;17.90;99.90;;;;;;5108740;22;19970;-87
2021/07/22 05:20:57;;;;;;;;;;;18.00;99.90;;;;;;5076018;28;19951;-88
2021/07/22 05:23:22;;;;;;;;;;;18.00;99.80;;;;;;5076383;28;19904;-88
2021/07/22 05:25:47;;;;;;;;;;;18.00;99.70;;;;;;5076695;28;19904;-87
2021/07/22 05:28:13;;;;;;;;;;;18.00;99.60;;;;;;5076844;28;20344;-88
2021/07/22 05:30:39;;;;;;;;;;;18.00;99.50;;;;;;5076022;28;19998;-89
2021/07/22 05:33:05;;;;;;;;;;;18.00;99.50;;;;;;5076253;28;19954;-88
2021/07/22 05:35:32;;;;;;;;;;;18.00;99.40;;;;;;5075979;28;19908;-89
2021/07/22 05:37:57;;;;;;;;;;;18.00;99.50;;;;;;5076121;28;20264;-88
2021/07/22 05:40:23;;;;;;;;;;;18.10;99.70;;;;;;5075659;28;19904;-89
2021/07/22 05:42:49;;;;;;;;;;;18.10;99.70;;;;;;5076142;28;20276;-88
2021/07/22 05:45:15;;;;;;;;;;;18.10;99.60;;;;;;5076069;28;20002;-88
2021/07/22 05:47:41;;;;;;;;;;;18.10;99.60;;;;;;5093935;28;19904;-87
2021/07/22 05:50:07;;;;;;;;;;;18.20;99.70;;;;;;5075377;28;19904;-87
2021/07/22 05:52:32;;;;;;;;;;;18.20;99.80;;;;;;5075720;28;20013;-88
2021/07/22 05:54:58;;;;;;;;;;;18.20;99.70;;;;;;5075597;28;19934;-88
2021/07/22 05:57:23;;;;;;;;;;;18.30;99.90;;;;;;5075500;28;19910;-88
2021/07/22 05:59:49;;;;;;;;;;;18.30;99.80;;;;;;5075060;28;20425;-88
2021/07/22 06:02:14;;;;;;;;;;;18.40;99.80;;;;;;5093698;28;20325;-88
2021/07/22 06:04:40;;;;;;;;;;;18.50;99.80;;;;;;5075382;28;19956;-89
2021/07/22 06:07:06;;;;;;;;;;;18.50;99.80;;;;;;5075120;28;19904;-88
2021/07/22 06:09:31;;;;;;;;;;;18.60;99.80;;;;;;5074769;28;19912;-89
2021/07/22 06:11:57;;;;;;;;;;;18.70;99.80;;;;;;5075754;28;19911;-88
2021/07/22 06:14:22;;;;;;;;;;;18.80;99.70;;;;;;5094949;28;19970;-89
2021/07/22 06:16:48;;;;;;;;;;;18.80;99.60;;;;;;5075974;28;19922;-89
2021/07/22 06:19:13;;;;;;;;;;;18.90;99.60;;;;;;5074597;28;19919;-89
2021/07/22 06:21:39;;;;;;;;;;;19.10;99.50;;;;;;5074986;28;19904;-89
2021/07/22 06:24:04;;;;;;;;;;;19.10;99.30;;;;;;5075130;28;19914;-89
2021/07/22 06:26:34;;;;;;;;;;;19.20;99.10;;;;;;5093182;28;19904;-89
2021/07/22 06:29:00;;;;;;;;;;;19.20;98.80;;;;;;5092766;28;20269;-89
2021/07/22 06:31:25;;;;;;;;;;;19.20;98.60;;;;;;5094240;28;19910;-89
2021/07/22 06:33:50;;;;;;;;;;;19.20;98.70;;;;;;5077143;28;19915;-89
2021/07/22 06:36:16;;;;;;;;;;;19.30;98.60;;;;;;5095688;28;19915;-89
2021/07/22 06:38:41;;;;;;;;;;;19.30;98.50;;;;;;5075119;28;19904;-89
2021/07/22 06:41:07;;;;;;;;;;;19.30;98.40;;;;;;5074537;28;19925;-89
2021/07/22 06:43:33;;;;;;;;;;;19.40;98.30;;;;;;5074777;28;19983;-89
2021/07/22 06:45:58;;;;;;;;;;;19.40;98.20;;;;;;5074484;28;20288;-89
2021/07/22 06:48:23;;;;;;;;;;;19.40;98.00;;;;;;5093263;28;19904;-89
2021/07/22 06:50:49;;;;;;;;;;;19.50;98.10;;;;;;5074304;28;19947;-89
2021/07/22 06:53:15;;;;;;;;;;;19.50;98.10;;;;;;5074682;28;20368;-89
2021/07/22 06:55:40;;;;;;;;;;;19.50;98.10;;;;;;5074638;28;19915;-89
2021/07/22 06:58:06;;;;;;;;;;;19.60;98.10;;;;;;5092626;28;19904;-89
2021/07/22 07:00:32;;;;;;;;;;;19.60;98.10;;;;;;5073917;28;19904;-89
2021/07/22 07:03:00;;;;;;;;;;;19.60;98.00;;;;;;5074670;28;19904;-89
2021/07/22 07:05:26;;;;;;;;;;;19.70;97.90;;;;;;5092825;28;19904;-89
2021/07/22 07:07:53;;;;;;;;;;;19.60;97.70;;;;;;5092464;28;20101;-89
2021/07/22 07:10:19;;;;;;;;;;;19.70;97.50;;;;;;5074554;28;19905;-89
2021/07/22 07:12:44;;;;;;;;;;;19.70;97.50;;;;;;5074447;28;19957;-89
2021/07/22 07:15:10;;;;;;;;;;;19.80;97.60;;;;;;5092611;28;19907;-89
2021/07/22 07:17:36;;;;;;;;;;;19.80;97.50;;;;;;5074143;28;19911;-89
2021/07/22 07:20:01;;;;;;;;;;;19.80;97.50;;;;;;5073883;28;20013;-89
2021/07/22 07:22:27;;;;;;;;;;;19.80;97.50;;;;;;5093533;28;19911;-89
2021/07/22 07:24:52;;;;;;;;;;;19.80;97.50;;;;;;5074634;28;19904;-89
2021/07/22 07:27:17;;;;;;;;;;;19.90;97.60;;;;;;5074425;28;19969;-88
2021/07/22 07:29:43;;;;;;;;;;;19.90;97.70;;;;;;5073709;28;19907;-89
2021/07/22 07:32:09;;;;;;;;;;;19.90;97.70;;;;;;5092296;28;19904;-89
2021/07/22 07:34:35;;;;;;;;;;;19.90;97.50;;;;;;5074384;28;20011;-89
2021/07/22 07:37:01;;;;;;;;;;;19.90;97.50;;;;;;5074192;28;20369;-89
2021/07/22 07:39:26;;;;;;;;;;;20.00;97.60;;;;;;5075055;28;19998;-89
2021/07/22 07:41:52;;;;;;;;;;;20.00;97.70;;;;;;5074264;28;19904;-89
2021/07/22 07:44:17;;;;;;;;;;;20.00;97.70;;;;;;5074255;28;19908;-89
2021/07/22 07:46:43;;;;;;;;;;;20.10;97.70;;;;;;5074143;28;19908;-89
2021/07/22 07:49:08;;;;;;;;;;;20.10;97.60;;;;;;5073796;28;19908;-89
2021/07/22 07:51:34;;;;;;;;;;;20.10;97.50;;;;;;5074024;28;19915;-88
2021/07/22 07:53:59;;;;;;;;;;;20.20;97.20;;;;;;5074011;28;19949;-88
2021/07/22 07:56:25;;;;;;;;;;;20.20;97.30;;;;;;5091968;28;20265;-89
2021/07/22 07:58:51;;;;;;;;;;;20.20;97.10;;;;;;5091824;28;19911;-89
2021/07/22 08:01:16;;;;;;;;;;;20.20;97.10;;;;;;5091868;28;20427;-88
2021/07/22 08:03:42;;;;;;;;;;;20.30;97.00;;;;;;5074090;28;19956;-89
2021/07/22 08:06:08;;;;;;;;;;;20.30;96.70;;;;;;5074059;28;19904;-89
2021/07/22 08:08:33;;;;;;;;;;;20.30;96.60;;;;;;5073808;28;19914;-89
2021/07/22 08:10:59;;;;;;;;;;;20.30;96.40;;;;;;5073497;28;19908;-89
2021/07/22 08:13:25;;;;;;;;;;;20.30;96.30;;;;;;5073833;28;20511;-89
2021/07/22 08:15:50;;;;;;;;;;;20.30;96.10;;;;;;5073784;28;19908;-88
2021/07/22 08:18:16;;;;;;;;;;;20.40;95.90;;;;;;5074105;28;20253;-89
2021/07/22 08:20:42;;;;;;;;;;;20.40;95.80;;;;;;5091595;28;19911;-89
2021/07/22 08:23:08;;;;;;;;;;;20.40;95.60;;;;;;5073752;28;19904;-89
2021/07/22 08:25:33;;;;;;;;;;;20.40;95.70;;;;;;5073881;28;19904;-89
2021/07/22 08:27:59;;;;;;;;;;;20.50;95.80;;;;;;5091815;28;20323;-89
2021/07/22 08:30:24;;;;;;;;;;;20.50;95.70;;;;;;5075983;28;19908;-89
2021/07/22 08:32:50;;;;;;;;;;;20.50;95.20;;;;;;5076860;28;19904;-89
2021/07/22 08:35:15;;;;;;;;;;;20.60;94.90;;;;;;5077098;28;19908;-89
2021/07/22 08:37:43;;;;;;;;;;;20.60;95.00;;;;;;5077026;28;20276;-89
2021/07/22 08:40:09;;;;;;;;;;;20.60;94.90;;;;;;5094510;28;19904;-88
2021/07/22 08:42:36;;;;;;;;;;;20.60;94.50;;;;;;5095122;28;19911;-89
2021/07/22 08:45:02;;;;;;;;;;;20.70;94.30;;;;;;5095279;28;19965;-89
2021/07/22 08:47:28;;;;;;;;;;;20.70;93.70;;;;;;5095189;28;19927;-89
2021/07/22 08:49:54;;;;;;;;;;;20.70;93.90;;;;;;5076451;28;20345;-89
2021/07/22 08:52:19;;;;;;;;;;;20.70;94.20;;;;;;5076903;28;19904;-89
2021/07/22 08:54:45;;;;;;;;;;;20.70;94.40;;;;;;5077012;28;19904;-89
2021/07/22 08:57:12;;;;;;;;;;;20.80;94.80;;;;;;5076873;28;19904;-89
2021/07/22 08:59:37;;;;;;;;;;;20.80;94.10;;;;;;5076300;28;19955;-89
2021/07/22 09:02:03;;;;;;;;;;;20.90;94.00;;;;;;5076905;28;19955;-89
2021/07/22 09:04:29;;;;;;;;;;;20.90;93.90;;;;;;5076579;28;19911;-89
2021/07/22 09:06:55;;;;;;;;;;;21.00;93.90;;;;;;5076902;28;19912;-89
2021/07/22 09:09:21;;;;;;;;;;;21.10;93.20;;;;;;5094180;28;19910;-89
2021/07/22 09:11:56;;;;;;;;;;;21.10;93.40;;;;;;5076432;28;19999;-89
2021/07/22 09:14:22;;;;;;;;;;;21.20;93.30;;;;;;5076569;28;19966;-89
2021/07/22 09:16:48;;;;;;;;;;;21.40;92.90;;;;;;5094575;28;19908;-89
2021/07/22 09:19:32;;;;;;;;;;;21.40;92.50;;;;;;5075700;28;19919;-89
2021/07/22 09:21:58;;;;;;;;;;;21.50;92.30;;;;;;5076289;28;19904;-89
2021/07/22 09:24:23;;;;;;;;;;;21.60;91.90;;;;;;5076249;28;19994;-89
2021/07/22 09:26:51;;;;;;;;;;;21.70;92.10;;;;;;5094407;28;19986;-89
2021/07/22 09:29:17;;;;;;;;;;;21.70;92.40;;;;;;5075666;28;20394;-89
2021/07/22 09:31:43;;;;;;;;;;;21.80;92.10;;;;;;5076072;28;20379;-89
2021/07/22 09:34:16;;;;;;;;;;;21.80;92.00;;;;;;5076152;28;19904;-89
2021/07/22 09:36:41;;;;;;;;;;;21.90;91.50;;;;;;5075990;28;19985;-89
2021/07/22 09:39:21;;;;;;;;;;;21.90;91.60;;;;;;5075295;28;19908;-89
2021/07/22 09:41:57;;;;;;;;;;;21.90;91.30;;;;;;5075924;28;19927;-90
2021/07/22 09:44:27;;;;;;;;;;;21.90;91.20;;;;;;5075996;28;20323;-89
2021/07/22 09:46:52;;;;;;;;;;;21.90;91.50;;;;;;5094005;28;19904;-89
2021/07/22 09:49:18;;;;;;;;;;;22.00;90.60;;;;;;5093587;28;20264;-89
2021/07/22 09:51:43;;;;;;;;;;;21.90;90.40;;;;;;5075710;28;20353;-89
2021/07/22 09:54:10;;;;;;;;;;;21.90;90.30;;;;;;5093946;28;19908;-89
2021/07/22 09:56:36;;;;;;;;;;;22.00;90.10;;;;;;5075400;28;19908;-89
2021/07/22 09:59:02;;;;;;;;;;;22.00;90.00;;;;;;5074852;28;20014;-89
2021/07/22 10:01:27;;;;;;;;;;;22.00;90.60;;;;;;5075601;28;19904;-89
2021/07/22 10:03:53;;;;;;;;;;;22.00;90.40;;;;;;5093889;28;19947;-89
2021/07/22 10:06:19;;;;;;;;;;;22.00;90.50;;;;;;5075455;28;19911;-89
2021/07/22 10:08:45;;;;;;;;;;;22.10;90.80;;;;;;5075248;28;19908;-89
2021/07/22 10:11:11;;;;;;;;;;;22.10;90.80;;;;;;5074752;28;19911;-89
2021/07/22 10:13:39;;;;;;;;;;;22.10;90.80;;;;;;5075398;28;19954;-89
2021/07/22 10:16:10;;;;;;;;;;;22.10;90.70;;;;;;5093495;28;19912;-89
2021/07/22 10:18:39;;;;;;;;;;;22.10;90.50;;;;;;5074984;28;19911;-88
2021/07/22 10:21:05;;;;;;;;;;;22.10;91.00;;;;;;5074609;28;19908;-89
2021/07/22 10:23:32;;;;;;;;;;;22.20;91.10;;;;;;5075078;28;19904;-89
2021/07/22 10:25:58;;;;;;;;;;;22.20;91.00;;;;;;5075230;28;19908;-89
2021/07/22 10:28:23;;;;;;;;;;;22.30;90.70;;;;;;5075142;28;20007;-89
2021/07/22 10:30:49;;;;;;;;;;;22.30;90.70;;;;;;5092549;28;19904;-89
2021/07/22 10:33:19;;;;;;;;;;;22.20;90.80;;;;;;5093101;28;19946;-89
2021/07/22 10:35:45;;;;;;;;;;;22.30;91.40;;;;;;5093010;28;19918;-89
2021/07/22 10:38:20;;;;;;;;;;;22.30;91.60;;;;;;5075129;28;19908;-89
2021/07/22 10:40:50;;;;;;;;;;;22.40;91.40;;;;;;5074329;28;19904;-89
2021/07/22 10:43:38;;;;;;;;;;;22.40;91.30;;;;;;5092850;28;19915;-89
2021/07/22 10:46:04;;;;;;;;;;;22.50;91.30;;;;;;5093414;28;19910;-89
2021/07/22 10:48:29;;;;;;;;;;;22.60;91.40;;;;;;5075263;28;19904;-89
2021/07/22 10:50:55;;;;;;;;;;;22.70;91.40;;;;;;5094249;28;19908;-89
2021/07/22 10:53:39;;;;;;;;;;;22.70;91.40;;;;;;5098313;28;19908;-89
2021/07/22 10:56:06;;;;;;;;;;;22.80;91.10;;;;;;5100138;28;19915;-89
2021/07/22 10:58:34;;;;;;;;;;;22.80;90.80;;;;;;5079822;28;19904;-89
2021/07/22 11:01:03;;;;;;;;;;;22.80;91.00;;;;;;5077415;28;20356;-89
2021/07/22 11:03:35;;;;;;;;;;;22.70;91.40;;;;;;5078809;28;20364;-89
2021/07/22 11:06:13;;;;;;;;;;;22.80;92.00;;;;;;5096216;28;20283;-89
2021/07/22 11:08:43;;;;;;;;;;;22.70;92.00;;;;;;5078310;28;20368;-89
2021/07/22 11:11:13;;;;;;;;;;;22.60;92.40;;;;;;5084829;28;20356;-89
2021/07/22 11:13:38;;;;;;;;;;;22.60;92.40;;;;;;5076146;28;20383;-89
2021/07/22 11:16:05;;;;;;;;;;;22.60;92.40;;;;;;5074896;28;19912;-89
2021/07/22 11:18:39;;;;;;;;;;;22.60;91.90;;;;;;5093276;28;19913;-89
2021/07/22 11:21:06;;;;;;;;;;;22.60;92.00;;;;;;5074821;28;19908;-89
2021/07/22 11:23:31;;;;;;;;;;;22.60;92.30;;;;;;5074850;28;20363;-89
2021/07/22 11:25:57;;;;;;;;;;;22.70;91.90;;;;;;5074664;28;19911;-88
2021/07/22 11:28:23;;;;;;;;;;;22.70;91.40;;;;;;5092706;28;20364;-89
2021/07/22 11:30:59;;;;;;;;;;;22.70;91.40;;;;;;5074648;28;19919;-89
2021/07/22 11:33:25;;;;;;;;;;;22.80;91.50;;;;;;5074583;28;19908;-88
2021/07/22 11:35:55;;;;;;;;;;;22.70;92.10;;;;;;5074459;28;19955;-89
2021/07/22 11:38:21;;;;;;;;;;;22.70;91.50;;;;;;5075705;28;20351;-89
2021/07/22 11:40:46;;;;;;;;;;;22.70;91.30;;;;;;5074474;28;19947;-89
2021/07/22 11:43:12;;;;;;;;;;;22.70;91.30;;;;;;5074579;28;19904;-88
2021/07/22 11:45:41;;;;;;;;;;;22.70;91.40;;;;;;5074476;28;19904;-89
2021/07/22 11:48:21;;;;;;;;;;;22.70;91.60;;;;;;5074351;28;20018;-89
2021/07/22 11:50:56;;;;;;;;;;;22.70;91.70;;;;;;5074797;28;20291;-89
2021/07/22 11:53:22;;;;;;;;;;;22.70;91.50;;;;;;5093795;28;19926;-88
2021/07/22 11:55:47;;;;;;;;;;;22.70;92.00;;;;;;5074346;28;19908;-89
2021/07/22 11:58:16;;;;;;;;;;;22.80;92.00;;;;;;5074298;28;20269;-89
2021/07/22 12:00:42;;;;;;;;;;;22.90;91.30;;;;;;5074371;28;20353;-90
2021/07/22 12:03:08;;;;;;;;;;;22.90;90.90;;;;;;5074548;28;19904;-89
2021/07/22 12:05:33;;;;;;;;;;;23.00;90.80;;;;;;5077804;28;19996;-87
2021/07/22 12:08:15;;;;;;;;;;;23.00;91.20;;;;;;5077941;28;20357;-87
2021/07/22 12:10:41;;;;;;;;;;;23.00;90.50;;;;;;5078723;28;19954;-89
2021/07/22 12:13:10;;;;;;;;;;;23.10;88.90;;;;;;5078107;28;19958;-87
2021/07/22 12:15:36;;;;;;;;;;;23.20;90.60;;;;;;5078083;28;20307;-87
2021/07/22 12:18:02;;;;;;;;;;;23.30;90.50;;;;;;5077822;28;20363;-87
2021/07/22 12:20:27;;;;;;;;;;;23.40;91.20;;;;;;5077837;28;19962;-87
2021/07/22 12:22:53;;;;;;;;;;;23.40;90.90;;;;;;5096547;28;19904;-87
2021/07/22 12:25:19;;;;;;;;;;;23.60;90.40;;;;;;5095965;28;20250;-89
2021/07/22 12:27:49;;;;;;;;;;;23.60;90.10;;;;;;5077624;28;19934;-89
2021/07/22 12:30:18;;;;;;;;;;;23.70;89.70;;;;;;5095855;28;19904;-89
2021/07/22 12:32:51;;;;;;;;;;;23.70;88.60;;;;;;5077566;28;20318;-89
2021/07/22 12:35:38;;;;;;;;;;;23.80;87.90;;;;;;5077396;28;19915;-89
2021/07/22 12:38:05;;;;;;;;;;;23.80;87.70;;;;;;5095530;28;19911;-86
2021/07/22 12:40:31;;;;;;;;;;;23.90;87.80;;;;;;5077524;28;19998;-89
2021/07/22 12:42:58;;;;;;;;;;;23.90;89.00;;;;;;5095582;28;19919;-90
2021/07/22 12:45:23;;;;;;;;;;;23.90;89.10;;;;;;5077396;28;19911;-88
2021/07/22 12:47:49;;;;;;;;;;;23.90;89.70;;;;;;5077214;28;19904;-89
2021/07/22 12:50:27;;;;;;;;;;;23.90;89.20;;;;;;5077357;28;19956;-89
2021/07/22 12:52:53;;;;;;;;;;;23.90;89.10;;;;;;5095389;28;20350;-90
2021/07/22 12:55:27;;;;;;;;;;;24.00;88.10;;;;;;5095262;28;19970;-89
2021/07/22 12:57:52;;;;;;;;;;;24.00;87.20;;;;;;5077214;28;19905;-89
2021/07/22 13:00:19;;;;;;;;;;;24.00;86.70;;;;;;5077101;28;20268;-89
2021/07/22 13:03:01;;;;;;;;;;;23.90;86.40;;;;;;5077094;28;19973;-89
2021/07/22 13:05:27;;;;;;;;;;;23.90;87.20;;;;;;5095135;28;20280;-88
2021/07/22 13:07:53;;;;;;;;;;;23.80;87.00;;;;;;5077131;28;19904;-88
2021/07/22 13:10:19;;;;;;;;;;;23.70;86.70;;;;;;5098443;28;20175;-89
2021/07/22 13:12:45;;;;;;;;;;;23.80;88.90;;;;;;5076674;28;20299;-88
2021/07/22 13:15:11;;;;;;;;;;;23.80;89.00;;;;;;5076390;28;19904;-89
2021/07/22 13:17:40;;;;;;;;;;;23.90;87.60;;;;;;5076581;28;19904;-88
2021/07/22 13:20:09;;;;;;;;;;;23.80;87.80;;;;;;5076893;28;19912;-88
2021/07/22 13:22:35;;;;;;;;;;;23.70;88.10;;;;;;5076510;28;20284;-89
2021/07/22 13:25:01;;;;;;;;;;;23.70;89.40;;;;;;5094790;28;19904;-88
2021/07/22 13:27:26;;;;;;;;;;;23.70;88.40;;;;;;5077107;28;19995;-89
2021/07/22 13:29:52;;;;;;;;;;;23.60;88.40;;;;;;5076581;28;19904;-90
2021/07/22 13:32:17;;;;;;;;;;;23.60;88.70;;;;;;5076447;28;19911;-89
2021/07/22 13:34:45;;;;;;;;;;;23.70;89.20;;;;;;5094565;28;20284;-88
2021/07/22 13:37:11;;;;;;;;;;;23.70;87.90;;;;;;5094737;28;20404;-89
2021/07/22 13:39:37;;;;;;;;;;;23.70;87.20;;;;;;5076281;28;19977;-89
2021/07/22 13:42:04;;;;;;;;;;;23.80;87.20;;;;;;5094455;28;20000;-89
2021/07/22 13:44:29;;;;;;;;;;;23.80;87.80;;;;;;5076285;28;19904;-89
2021/07/22 13:46:55;;;;;;;;;;;23.80;87.80;;;;;;5094781;28;19927;-89
2021/07/22 13:49:20;;;;;;;;;;;23.80;88.20;;;;;;5076075;28;19992;-89
2021/07/22 13:51:46;;;;;;;;;;;23.90;87.50;;;;;;5075839;28;19911;-88
2021/07/22 13:54:12;;;;;;;;;;;24.00;86.30;;;;;;5093851;28;19911;-88
2021/07/22 13:56:38;;;;;;;;;;;24.00;84.80;;;;;;5075613;28;19914;-89
2021/07/22 13:59:04;;;;;;;;;;;24.10;84.00;;;;;;5075064;28;19904;-88
2021/07/22 14:01:29;;;;;;;;;;;24.20;83.80;;;;;;5075647;28;19910;-88
2021/07/22 14:03:55;;;;;;;;;;;24.20;84.60;;;;;;5075623;28;19904;-89
2021/07/22 14:06:21;;;;;;;;;;;24.40;85.50;;;;;;5075538;28;19908;-88
2021/07/22 14:08:47;;;;;;;;;;;24.50;84.40;;;;;;5093431;28;20350;-90
2021/07/22 14:11:13;;;;;;;;;;;24.60;83.80;;;;;;5075080;28;19947;-89
2021/07/22 14:13:40;;;;;;;;;;;24.80;83.20;;;;;;5075455;28;19911;-89